sensor_id;sensor_type;location;lat;lon;timestamp;temperature;humidity
6662;DHT22;3367;48.714;8.994;2024-02-16T00:01:24;8.60;15.30
6662;DHT22;3367;48.714;8.994;2024-02-16T00:03:54;8.70;9.10
6662;DHT22;3367;48.714;8.994;2024-02-16T00:06:21;8.60;1.00
6662;DHT22;3367;48.714;8.994;2024-02-16T00:08:54;8.60;1.00
6662;DHT22;3367;48.714;8.994;2024-02-16T00:11:20;8.70;1.00
6662;DHT22;3367;48.714;8.994;2024-02-16T00:13:51;8.70;1.00
6662;DHT22;3367;48.714;8.994;2024-02-16T00:16:23;8.70;1.00
6662;DHT22;3367;48.714;8.994;2024-02-16T00:18:51;8.80;1.00
6662;DHT22;3367;48.714;8.994;2024-02-16T00:21:17;8.80;1.00
6662;DHT22;3367;48.714;8.994;2024-02-16T00:23:52;8.80;1.00
6662;DHT22;3367;48.714;8.994;2024-02-16T00:26:18;8.80;1.00
6662;DHT22;3367;48.714;8.994;2024-02-16T00:28:46;8.90;1.00
6662;DHT22;3367;48.714;8.994;2024-02-16T00:31:13;8.90;1.00
6662;DHT22;3367;48.714;8.994;2024-02-16T00:33:40;8.90;1.00
6662;DHT22;3367;48.714;8.994;2024-02-16T00:36:11;8.90;1.00
6662;DHT22;3367;48.714;8.994;2024-02-16T00:38:40;9.00;1.00
6662;DHT22;3367;48.714;8.994;2024-02-16T00:41:21;9.00;1.00
6662;DHT22;3367;48.714;8.994;2024-02-16T00:43:51;9.00;1.00
6662;DHT22;3367;48.714;8.994;2024-02-16T00:46:19;9.00;1.00
6662;DHT22;3367;48.714;8.994;2024-02-16T00:48:48;9.00;1.00
6662;DHT22;3367;48.714;8.994;2024-02-16T00:51:16;9.00;1.00
6662;DHT22;3367;48.714;8.994;2024-02-16T00:53:43;9.00;1.00
6662;DHT22;3367;48.714;8.994;2024-02-16T00:56:13;9.00;1.00
6662;DHT22;3367;48.714;8.994;2024-02-16T00:58:43;9.00;1.00
6662;DHT22;3367;48.714;8.994;2024-02-16T01:01:10;9.00;1.00
6662;DHT22;3367;48.714;8.994;2024-02-16T01:03:37;9.00;1.00
6662;DHT22;3367;48.714;8.994;2024-02-16T01:06:05;9.00;99.90
6662;DHT22;3367;48.714;8.994;2024-02-16T01:08:35;9.00;99.90
6662;DHT22;3367;48.714;8.994;2024-02-16T01:11:05;9.10;99.90
6662;DHT22;3367;48.714;8.994;2024-02-16T01:13:35;9.10;99.90
6662;DHT22;3367;48.714;8.994;2024-02-16T01:16:04;9.10;99.90
6662;DHT22;3367;48.714;8.994;2024-02-16T01:18:35;9.20;99.90
6662;DHT22;3367;48.714;8.994;2024-02-16T01:21:04;9.30;99.90
6662;DHT22;3367;48.714;8.994;2024-02-16T01:23:46;9.30;99.90
6662;DHT22;3367;48.714;8.994;2024-02-16T01:26:13;9.40;99.90
6662;DHT22;3367;48.714;8.994;2024-02-16T01:28:46;9.40;99.90
6662;DHT22;3367;48.714;8.994;2024-02-16T01:31:15;9.50;99.90
6662;DHT22;3367;48.714;8.994;2024-02-16T01:33:44;9.50;99.90
6662;DHT22;3367;48.714;8.994;2024-02-16T01:36:11;9.50;99.90
6662;DHT22;3367;48.714;8.994;2024-02-16T01:38:38;9.50;99.90
6662;DHT22;3367;48.714;8.994;2024-02-16T01:41:08;9.50;99.90
6662;DHT22;3367;48.714;8.994;2024-02-16T01:43:42;9.50;99.90
6662;DHT22;3367;48.714;8.994;2024-02-16T01:46:09;9.50;99.90
6662;DHT22;3367;48.714;8.994;2024-02-16T01:48:36;9.50;1.00
6662;DHT22;3367;48.714;8.994;2024-02-16T01:51:08;9.50;1.00
6662;DHT22;3367;48.714;8.994;2024-02-16T01:53:36;9.50;1.00
6662;DHT22;3367;48.714;8.994;2024-02-16T01:56:03;9.50;1.00
6662;DHT22;3367;48.714;8.994;2024-02-16T01:58:34;9.50;1.00
6662;DHT22;3367;48.714;8.994;2024-02-16T02:01:04;9.50;1.00
6662;DHT22;3367;48.714;8.994;2024-02-16T02:03:31;9.50;1.00
6662;DHT22;3367;48.714;8.994;2024-02-16T02:06:00;9.50;1.00
6662;DHT22;3367;48.714;8.994;2024-02-16T02:08:33;9.50;1.00
6662;DHT22;3367;48.714;8.994;2024-02-16T02:11:03;9.50;1.00
6662;DHT22;3367;48.714;8.994;2024-02-16T02:13:31;9.50;1.00
6662;DHT22;3367;48.714;8.994;2024-02-16T02:16:06;9.50;1.00
6662;DHT22;3367;48.714;8.994;2024-02-16T02:18:33;9.50;1.00
6662;DHT22;3367;48.714;8.994;2024-02-16T02:21:05;9.40;1.00
6662;DHT22;3367;48.714;8.994;2024-02-16T02:23:46;9.40;1.00
6662;DHT22;3367;48.714;8.994;2024-02-16T02:26:14;9.40;31.30
6662;DHT22;3367;48.714;8.994;2024-02-16T02:28:45;9.40;55.10
6662;DHT22;3367;48.714;8.994;2024-02-16T02:31:11;9.40;99.90
6662;DHT22;3367;48.714;8.994;2024-02-16T02:33:44;9.40;99.90
6662;DHT22;3367;48.714;8.994;2024-02-16T02:36:11;9.40;99.90
6662;DHT22;3367;48.714;8.994;2024-02-16T02:38:39;9.40;98.00
6662;DHT22;3367;48.714;8.994;2024-02-16T02:41:08;9.40;1.00
6662;DHT22;3367;48.714;8.994;2024-02-16T02:43:38;9.40;1.00
6662;DHT22;3367;48.714;8.994;2024-02-16T02:46:05;9.40;1.00
6662;DHT22;3367;48.714;8.994;2024-02-16T02:48:35;9.40;1.00
6662;DHT22;3367;48.714;8.994;2024-02-16T02:51:01;9.40;1.00
6662;DHT22;3367;48.714;8.994;2024-02-16T02:53:29;9.40;1.00
6662;DHT22;3367;48.714;8.994;2024-02-16T02:55:57;9.40;1.00
6662;DHT22;3367;48.714;8.994;2024-02-16T02:58:23;9.40;1.00
6662;DHT22;3367;48.714;8.994;2024-02-16T03:00:50;9.40;1.00
6662;DHT22;3367;48.714;8.994;2024-02-16T03:03:23;9.40;1.00
6662;DHT22;3367;48.714;8.994;2024-02-16T03:05:52;9.40;1.00
6662;DHT22;3367;48.714;8.994;2024-02-16T03:08:24;9.30;1.00
6662;DHT22;3367;48.714;8.994;2024-02-16T03:10:51;9.40;1.00
6662;DHT22;3367;48.714;8.994;2024-02-16T03:13:19;9.40;1.00
6662;DHT22;3367;48.714;8.994;2024-02-16T03:15:45;9.40;1.00
6662;DHT22;3367;48.714;8.994;2024-02-16T03:18:11;9.50;1.00
6662;DHT22;3367;48.714;8.994;2024-02-16T03:20:39;9.30;1.00
6662;DHT22;3367;48.714;8.994;2024-02-16T03:23:11;9.30;1.00
6662;DHT22;3367;48.714;8.994;2024-02-16T03:25:41;9.20;4.90
6662;DHT22;3367;48.714;8.994;2024-02-16T03:28:09;9.20;93.40
6662;DHT22;3367;48.714;8.994;2024-02-16T03:30:39;9.20;57.30
6662;DHT22;3367;48.714;8.994;2024-02-16T03:33:06;9.10;46.90
6662;DHT22;3367;48.714;8.994;2024-02-16T03:35:33;9.00;99.90
6662;DHT22;3367;48.714;8.994;2024-02-16T03:38:04;9.10;50.60
6662;DHT22;3367;48.714;8.994;2024-02-16T03:40:44;9.10;1.00
6662;DHT22;3367;48.714;8.994;2024-02-16T03:43:11;9.10;1.00
6662;DHT22;3367;48.714;8.994;2024-02-16T03:45:44;9.10;1.00
6662;DHT22;3367;48.714;8.994;2024-02-16T03:48:11;9.10;1.00
6662;DHT22;3367;48.714;8.994;2024-02-16T03:50:41;9.10;1.00
6662;DHT22;3367;48.714;8.994;2024-02-16T03:53:08;9.10;1.00
6662;DHT22;3367;48.714;8.994;2024-02-16T03:55:37;9.10;3.40
6662;DHT22;3367;48.714;8.994;2024-02-16T03:58:16;9.10;99.90
6662;DHT22;3367;48.714;8.994;2024-02-16T04:00:44;9.10;99.90
6662;DHT22;3367;48.714;8.994;2024-02-16T04:03:11;9.10;99.90
6662;DHT22;3367;48.714;8.994;2024-02-16T04:05:38;9.10;12.50
6662;DHT22;3367;48.714;8.994;2024-02-16T04:08:06;9.10;1.00
6662;DHT22;3367;48.714;8.994;2024-02-16T04:10:32;9.10;1.00
6662;DHT22;3367;48.714;8.994;2024-02-16T04:12:59;9.10;1.00
6662;DHT22;3367;48.714;8.994;2024-02-16T04:15:26;9.10;1.00
6662;DHT22;3367;48.714;8.994;2024-02-16T04:17:54;9.20;1.00
6662;DHT22;3367;48.714;8.994;2024-02-16T04:20:21;9.20;1.00
6662;DHT22;3367;48.714;8.994;2024-02-16T04:22:51;9.20;1.00
6662;DHT22;3367;48.714;8.994;2024-02-16T04:25:18;9.20;1.00
6662;DHT22;3367;48.714;8.994;2024-02-16T04:27:48;9.20;1.00
6662;DHT22;3367;48.714;8.994;2024-02-16T04:30:15;9.20;1.00
6662;DHT22;3367;48.714;8.994;2024-02-16T04:32:53;9.10;36.00
6662;DHT22;3367;48.714;8.994;2024-02-16T04:35:20;9.10;61.90
6662;DHT22;3367;48.714;8.994;2024-02-16T04:37:49;9.10;99.90
6662;DHT22;3367;48.714;8.994;2024-02-16T04:40:16;9.10;99.90
6662;DHT22;3367;48.714;8.994;2024-02-16T04:42:49;9.10;99.90
6662;DHT22;3367;48.714;8.994;2024-02-16T04:45:15;9.00;99.90
6662;DHT22;3367;48.714;8.994;2024-02-16T04:47:44;9.00;99.90
6662;DHT22;3367;48.714;8.994;2024-02-16T04:50:19;8.90;1.00
6662;DHT22;3367;48.714;8.994;2024-02-16T04:52:54;8.90;1.00
6662;DHT22;3367;48.714;8.994;2024-02-16T04:55:23;8.90;1.00
6662;DHT22;3367;48.714;8.994;2024-02-16T04:57:55;8.80;1.00
6662;DHT22;3367;48.714;8.994;2024-02-16T05:00:28;8.80;1.00
6662;DHT22;3367;48.714;8.994;2024-02-16T05:03:06;8.80;1.00
6662;DHT22;3367;48.714;8.994;2024-02-16T05:05:37;8.70;1.00
6662;DHT22;3367;48.714;8.994;2024-02-16T05:08:05;8.70;1.00
6662;DHT22;3367;48.714;8.994;2024-02-16T05:10:32;8.70;1.00
6662;DHT22;3367;48.714;8.994;2024-02-16T05:12:58;8.70;1.00
6662;DHT22;3367;48.714;8.994;2024-02-16T05:15:25;8.80;1.00
6662;DHT22;3367;48.714;8.994;2024-02-16T05:17:53;8.70;1.00
6662;DHT22;3367;48.714;8.994;2024-02-16T05:20:19;8.70;1.00
6662;DHT22;3367;48.714;8.994;2024-02-16T05:22:48;8.70;99.90
6662;DHT22;3367;48.714;8.994;2024-02-16T05:25:20;8.70;1.00
6662;DHT22;3367;48.714;8.994;2024-02-16T05:27:53;8.60;99.90
6662;DHT22;3367;48.714;8.994;2024-02-16T05:30:23;8.70;99.90
6662;DHT22;3367;48.714;8.994;2024-02-16T05:32:50;8.70;99.90
6662;DHT22;3367;48.714;8.994;2024-02-16T05:35:27;8.70;99.90
6662;DHT22;3367;48.714;8.994;2024-02-16T05:38:08;8.70;17.50
6662;DHT22;3367;48.714;8.994;2024-02-16T05:40:46;8.70;1.00
6662;DHT22;3367;48.714;8.994;2024-02-16T05:43:19;8.70;1.00
6662;DHT22;3367;48.714;8.994;2024-02-16T05:45:58;8.60;1.00
6662;DHT22;3367;48.714;8.994;2024-02-16T05:48:24;8.60;93.80
6662;DHT22;3367;48.714;8.994;2024-02-16T05:50:57;8.50;96.50
6662;DHT22;3367;48.714;8.994;2024-02-16T05:53:27;8.50;77.80
6662;DHT22;3367;48.714;8.994;2024-02-16T05:55:54;8.50;1.00
6662;DHT22;3367;48.714;8.994;2024-02-16T05:58:27;8.40;1.00
6662;DHT22;3367;48.714;8.994;2024-02-16T06:00:54;8.40;1.00
6662;DHT22;3367;48.714;8.994;2024-02-16T06:03:30;8.40;1.00
6662;DHT22;3367;48.714;8.994;2024-02-16T06:05:57;8.40;1.00
6662;DHT22;3367;48.714;8.994;2024-02-16T06:08:24;8.40;1.00
6662;DHT22;3367;48.714;8.994;2024-02-16T06:10:52;8.60;1.00
6662;DHT22;3367;48.714;8.994;2024-02-16T06:13:22;8.60;1.00
6662;DHT22;3367;48.714;8.994;2024-02-16T06:15:51;8.80;99.90
6662;DHT22;3367;48.714;8.994;2024-02-16T06:18:21;8.90;99.90
6662;DHT22;3367;48.714;8.994;2024-02-16T06:20:48;8.90;99.90
6662;DHT22;3367;48.714;8.994;2024-02-16T06:23:14;8.80;99.90
6662;DHT22;3367;48.714;8.994;2024-02-16T06:25:44;8.70;99.90
6662;DHT22;3367;48.714;8.994;2024-02-16T06:28:15;8.70;99.90
6662;DHT22;3367;48.714;8.994;2024-02-16T06:30:42;8.70;99.90
6662;DHT22;3367;48.714;8.994;2024-02-16T06:33:08;8.60;99.90
6662;DHT22;3367;48.714;8.994;2024-02-16T06:35:35;8.60;99.90
6662;DHT22;3367;48.714;8.994;2024-02-16T06:38:05;8.40;99.90
6662;DHT22;3367;48.714;8.994;2024-02-16T06:40:32;8.30;1.00
6662;DHT22;3367;48.714;8.994;2024-02-16T06:42:59;8.20;1.00
6662;DHT22;3367;48.714;8.994;2024-02-16T06:45:27;8.20;1.00
6662;DHT22;3367;48.714;8.994;2024-02-16T06:47:55;8.10;1.00
6662;DHT22;3367;48.714;8.994;2024-02-16T06:50:22;8.10;1.00
6662;DHT22;3367;48.714;8.994;2024-02-16T06:52:49;8.00;1.00
6662;DHT22;3367;48.714;8.994;2024-02-16T06:55:16;7.90;1.00
6662;DHT22;3367;48.714;8.994;2024-02-16T06:57:43;8.00;1.00
6662;DHT22;3367;48.714;8.994;2024-02-16T07:00:11;8.00;1.00
6662;DHT22;3367;48.714;8.994;2024-02-16T07:02:40;7.90;1.00
6662;DHT22;3367;48.714;8.994;2024-02-16T07:05:08;7.90;1.00
6662;DHT22;3367;48.714;8.994;2024-02-16T07:07:35;8.00;1.00
6662;DHT22;3367;48.714;8.994;2024-02-16T07:10:01;8.00;1.00
6662;DHT22;3367;48.714;8.994;2024-02-16T07:12:30;8.00;1.00
6662;DHT22;3367;48.714;8.994;2024-02-16T07:14:59;8.10;1.00
6662;DHT22;3367;48.714;8.994;2024-02-16T07:17:26;8.30;1.00
6662;DHT22;3367;48.714;8.994;2024-02-16T07:19:54;8.40;1.00
6662;DHT22;3367;48.714;8.994;2024-02-16T07:22:21;8.40;1.00
6662;DHT22;3367;48.714;8.994;2024-02-16T07:24:48;8.40;1.00
6662;DHT22;3367;48.714;8.994;2024-02-16T07:27:14;8.40;1.00
6662;DHT22;3367;48.714;8.994;2024-02-16T07:29:42;8.40;1.00
6662;DHT22;3367;48.714;8.994;2024-02-16T07:32:09;8.40;1.00
6662;DHT22;3367;48.714;8.994;2024-02-16T07:34:37;8.40;1.00
6662;DHT22;3367;48.714;8.994;2024-02-16T07:37:06;8.40;1.00
6662;DHT22;3367;48.714;8.994;2024-02-16T07:39:34;8.50;1.00
6662;DHT22;3367;48.714;8.994;2024-02-16T07:42:01;8.50;1.00
6662;DHT22;3367;48.714;8.994;2024-02-16T07:44:28;8.70;1.00
6662;DHT22;3367;48.714;8.994;2024-02-16T07:46:54;8.60;1.00
6662;DHT22;3367;48.714;8.994;2024-02-16T07:49:21;8.70;1.00
6662;DHT22;3367;48.714;8.994;2024-02-16T07:51:48;8.80;1.00
6662;DHT22;3367;48.714;8.994;2024-02-16T07:54:16;8.90;1.00
6662;DHT22;3367;48.714;8.994;2024-02-16T07:56:43;9.00;1.00
6662;DHT22;3367;48.714;8.994;2024-02-16T07:59:10;9.10;99.90
6662;DHT22;3367;48.714;8.994;2024-02-16T08:01:37;9.30;99.90
6662;DHT22;3367;48.714;8.994;2024-02-16T08:04:04;9.40;99.90
6662;DHT22;3367;48.714;8.994;2024-02-16T08:06:31;9.50;99.90
6662;DHT22;3367;48.714;8.994;2024-02-16T08:08:59;9.70;99.90
6662;DHT22;3367;48.714;8.994;2024-02-16T08:11:27;9.90;99.90
6662;DHT22;3367;48.714;8.994;2024-02-16T08:13:54;10.00;99.90
6662;DHT22;3367;48.714;8.994;2024-02-16T08:16:21;10.30;99.90
6662;DHT22;3367;48.714;8.994;2024-02-16T08:18:48;10.40;50.00
6662;DHT22;3367;48.714;8.994;2024-02-16T08:21:14;10.80;22.30
6662;DHT22;3367;48.714;8.994;2024-02-16T08:23:41;10.80;3.80
6662;DHT22;3367;48.714;8.994;2024-02-16T08:26:08;10.90;1.00
6662;DHT22;3367;48.714;8.994;2024-02-16T08:28:36;11.20;1.00
6662;DHT22;3367;48.714;8.994;2024-02-16T08:31:05;11.20;1.00
6662;DHT22;3367;48.714;8.994;2024-02-16T08:33:32;11.40;1.00
6662;DHT22;3367;48.714;8.994;2024-02-16T08:36:03;11.40;1.00
6662;DHT22;3367;48.714;8.994;2024-02-16T08:38:31;11.50;1.00
6662;DHT22;3367;48.714;8.994;2024-02-16T08:40:57;11.60;1.00
6662;DHT22;3367;48.714;8.994;2024-02-16T08:43:25;11.80;1.00
6662;DHT22;3367;48.714;8.994;2024-02-16T08:45:53;11.90;1.00
6662;DHT22;3367;48.714;8.994;2024-02-16T08:48:20;12.10;1.00
6662;DHT22;3367;48.714;8.994;2024-02-16T08:50:47;12.20;1.00
6662;DHT22;3367;48.714;8.994;2024-02-16T08:53:13;12.40;1.00
6662;DHT22;3367;48.714;8.994;2024-02-16T08:55:41;12.50;1.00
6662;DHT22;3367;48.714;8.994;2024-02-16T08:58:08;12.60;1.00
6662;DHT22;3367;48.714;8.994;2024-02-16T09:00:35;12.60;1.00
6662;DHT22;3367;48.714;8.994;2024-02-16T09:03:04;12.60;1.00
6662;DHT22;3367;48.714;8.994;2024-02-16T09:05:31;12.60;1.00
6662;DHT22;3367;48.714;8.994;2024-02-16T09:07:59;12.70;1.00
6662;DHT22;3367;48.714;8.994;2024-02-16T09:10:25;12.60;1.00
6662;DHT22;3367;48.714;8.994;2024-02-16T09:12:52;12.70;1.00
6662;DHT22;3367;48.714;8.994;2024-02-16T09:15:19;12.90;1.00
6662;DHT22;3367;48.714;8.994;2024-02-16T09:17:46;13.00;1.00
6662;DHT22;3367;48.714;8.994;2024-02-16T09:20:14;13.10;1.00
6662;DHT22;3367;48.714;8.994;2024-02-16T09:22:41;13.20;1.00
6662;DHT22;3367;48.714;8.994;2024-02-16T09:25:08;13.30;1.00
6662;DHT22;3367;48.714;8.994;2024-02-16T09:27:35;13.40;1.00
6662;DHT22;3367;48.714;8.994;2024-02-16T09:30:06;13.30;1.00
6662;DHT22;3367;48.714;8.994;2024-02-16T09:32:36;13.30;1.00
6662;DHT22;3367;48.714;8.994;2024-02-16T09:35:03;13.20;1.00
6662;DHT22;3367;48.714;8.994;2024-02-16T09:37:31;13.20;1.00
6662;DHT22;3367;48.714;8.994;2024-02-16T09:39:58;13.10;1.00
6662;DHT22;3367;48.714;8.994;2024-02-16T09:42:24;13.10;1.00
6662;DHT22;3367;48.714;8.994;2024-02-16T09:44:52;13.10;1.00
6662;DHT22;3367;48.714;8.994;2024-02-16T09:47:22;13.20;1.00
6662;DHT22;3367;48.714;8.994;2024-02-16T09:49:51;13.20;1.00
6662;DHT22;3367;48.714;8.994;2024-02-16T09:52:18;13.30;1.00
6662;DHT22;3367;48.714;8.994;2024-02-16T09:54:46;13.40;1.00
6662;DHT22;3367;48.714;8.994;2024-02-16T09:57:16;13.60;1.00
6662;DHT22;3367;48.714;8.994;2024-02-16T09:59:43;13.80;1.00
6662;DHT22;3367;48.714;8.994;2024-02-16T10:02:10;13.90;1.00
6662;DHT22;3367;48.714;8.994;2024-02-16T10:04:36;14.10;1.00
6662;DHT22;3367;48.714;8.994;2024-02-16T10:07:03;14.30;1.00
6662;DHT22;3367;48.714;8.994;2024-02-16T10:09:31;14.50;1.00
6662;DHT22;3367;48.714;8.994;2024-02-16T10:11:59;14.60;1.00
6662;DHT22;3367;48.714;8.994;2024-02-16T10:14:26;14.70;1.00
6662;DHT22;3367;48.714;8.994;2024-02-16T10:16:59;14.90;1.00
6662;DHT22;3367;48.714;8.994;2024-02-16T10:19:28;14.90;1.00
6662;DHT22;3367;48.714;8.994;2024-02-16T10:22:06;14.90;1.00
6662;DHT22;3367;48.714;8.994;2024-02-16T10:24:34;14.90;1.00
6662;DHT22;3367;48.714;8.994;2024-02-16T10:27:02;15.00;1.00
6662;DHT22;3367;48.714;8.994;2024-02-16T10:29:30;15.00;1.00
6662;DHT22;3367;48.714;8.994;2024-02-16T10:31:59;15.10;1.00
6662;DHT22;3367;48.714;8.994;2024-02-16T10:34:27;15.20;1.00
6662;DHT22;3367;48.714;8.994;2024-02-16T10:36:54;15.20;1.00
6662;DHT22;3367;48.714;8.994;2024-02-16T10:39:22;15.20;1.00
6662;DHT22;3367;48.714;8.994;2024-02-16T10:41:51;15.30;1.00
6662;DHT22;3367;48.714;8.994;2024-02-16T10:44:19;15.30;1.00
6662;DHT22;3367;48.714;8.994;2024-02-16T10:46:46;15.20;1.00
6662;DHT22;3367;48.714;8.994;2024-02-16T10:49:14;15.20;1.00
6662;DHT22;3367;48.714;8.994;2024-02-16T10:51:43;15.20;1.00
6662;DHT22;3367;48.714;8.994;2024-02-16T10:54:13;15.20;1.00
6662;DHT22;3367;48.714;8.994;2024-02-16T10:56:41;15.30;1.00
6662;DHT22;3367;48.714;8.994;2024-02-16T10:59:09;15.30;1.00
6662;DHT22;3367;48.714;8.994;2024-02-16T11:01:41;15.30;1.00
6662;DHT22;3367;48.714;8.994;2024-02-16T11:04:10;15.20;1.00
6662;DHT22;3367;48.714;8.994;2024-02-16T11:06:47;15.30;1.00
6662;DHT22;3367;48.714;8.994;2024-02-16T11:09:26;15.30;1.00
6662;DHT22;3367;48.714;8.994;2024-02-16T11:11:53;15.30;1.00
6662;DHT22;3367;48.714;8.994;2024-02-16T11:14:21;15.40;1.00
6662;DHT22;3367;48.714;8.994;2024-02-16T11:16:49;15.40;1.00
6662;DHT22;3367;48.714;8.994;2024-02-16T11:19:16;15.40;1.00
6662;DHT22;3367;48.714;8.994;2024-02-16T11:21:58;15.50;1.00
6662;DHT22;3367;48.714;8.994;2024-02-16T11:24:30;15.50;1.00
6662;DHT22;3367;48.714;8.994;2024-02-16T11:26:58;15.50;1.00
6662;DHT22;3367;48.714;8.994;2024-02-16T11:29:26;15.60;1.00
6662;DHT22;3367;48.714;8.994;2024-02-16T11:31:58;15.60;1.00
6662;DHT22;3367;48.714;8.994;2024-02-16T11:34:26;15.60;1.00
6662;DHT22;3367;48.714;8.994;2024-02-16T11:36:54;15.60;1.00
6662;DHT22;3367;48.714;8.994;2024-02-16T11:39:21;15.70;1.00
6662;DHT22;3367;48.714;8.994;2024-02-16T11:41:58;15.70;1.00
6662;DHT22;3367;48.714;8.994;2024-02-16T11:44:27;15.90;1.00
6662;DHT22;3367;48.714;8.994;2024-02-16T11:46:54;16.00;1.00
6662;DHT22;3367;48.714;8.994;2024-02-16T11:49:22;16.10;1.00
6662;DHT22;3367;48.714;8.994;2024-02-16T11:51:49;16.10;1.00
6662;DHT22;3367;48.714;8.994;2024-02-16T11:54:16;16.20;1.00
6662;DHT22;3367;48.714;8.994;2024-02-16T11:56:43;16.20;1.00
6662;DHT22;3367;48.714;8.994;2024-02-16T11:59:12;16.30;1.00
6662;DHT22;3367;48.714;8.994;2024-02-16T12:01:48;16.30;1.00
6662;DHT22;3367;48.714;8.994;2024-02-16T12:04:24;16.40;1.00
6662;DHT22;3367;48.714;8.994;2024-02-16T12:06:52;16.50;1.00
6662;DHT22;3367;48.714;8.994;2024-02-16T12:09:19;16.60;1.00
6662;DHT22;3367;48.714;8.994;2024-02-16T12:11:48;16.60;1.00
6662;DHT22;3367;48.714;8.994;2024-02-16T12:14:15;16.60;1.00
6662;DHT22;3367;48.714;8.994;2024-02-16T12:16:43;16.80;1.00
6662;DHT22;3367;48.714;8.994;2024-02-16T12:19:13;16.90;1.00
6662;DHT22;3367;48.714;8.994;2024-02-16T12:21:41;16.90;1.00
6662;DHT22;3367;48.714;8.994;2024-02-16T12:24:07;17.10;1.00
6662;DHT22;3367;48.714;8.994;2024-02-16T12:26:36;17.10;1.00
6662;DHT22;3367;48.714;8.994;2024-02-16T12:29:02;17.10;1.00
6662;DHT22;3367;48.714;8.994;2024-02-16T12:31:30;17.10;1.00
6662;DHT22;3367;48.714;8.994;2024-02-16T12:33:56;17.10;1.00
6662;DHT22;3367;48.714;8.994;2024-02-16T12:36:23;17.20;1.00
6662;DHT22;3367;48.714;8.994;2024-02-16T12:38:51;17.10;1.00
6662;DHT22;3367;48.714;8.994;2024-02-16T12:41:18;17.00;1.00
6662;DHT22;3367;48.714;8.994;2024-02-16T12:43:45;17.10;1.00
6662;DHT22;3367;48.714;8.994;2024-02-16T12:46:11;17.00;1.00
6662;DHT22;3367;48.714;8.994;2024-02-16T12:48:38;17.10;1.00
6662;DHT22;3367;48.714;8.994;2024-02-16T12:51:05;17.10;1.00
6662;DHT22;3367;48.714;8.994;2024-02-16T12:53:32;17.20;1.00
6662;DHT22;3367;48.714;8.994;2024-02-16T12:56:07;17.10;1.00
6662;DHT22;3367;48.714;8.994;2024-02-16T12:58:35;17.10;1.00
6662;DHT22;3367;48.714;8.994;2024-02-16T13:01:01;17.10;1.00
6662;DHT22;3367;48.714;8.994;2024-02-16T13:03:28;17.10;1.00
6662;DHT22;3367;48.714;8.994;2024-02-16T13:05:55;17.10;1.00
6662;DHT22;3367;48.714;8.994;2024-02-16T13:08:22;17.20;1.00
6662;DHT22;3367;48.714;8.994;2024-02-16T13:10:49;17.20;1.00
6662;DHT22;3367;48.714;8.994;2024-02-16T13:13:17;17.20;1.00
6662;DHT22;3367;48.714;8.994;2024-02-16T13:15:44;17.10;1.00
6662;DHT22;3367;48.714;8.994;2024-02-16T13:18:10;17.20;1.00
6662;DHT22;3367;48.714;8.994;2024-02-16T13:20:37;17.20;1.00
6662;DHT22;3367;48.714;8.994;2024-02-16T13:23:04;17.20;1.00
6662;DHT22;3367;48.714;8.994;2024-02-16T13:25:31;17.20;1.00
6662;DHT22;3367;48.714;8.994;2024-02-16T13:27:58;17.20;1.00
6662;DHT22;3367;48.714;8.994;2024-02-16T13:30:26;17.20;1.00
6662;DHT22;3367;48.714;8.994;2024-02-16T13:32:53;17.00;1.00
6662;DHT22;3367;48.714;8.994;2024-02-16T13:35:20;16.90;1.00
6662;DHT22;3367;48.714;8.994;2024-02-16T13:37:47;16.80;1.00
6662;DHT22;3367;48.714;8.994;2024-02-16T13:40:14;16.80;1.00
6662;DHT22;3367;48.714;8.994;2024-02-16T13:42:42;16.70;1.00
6662;DHT22;3367;48.714;8.994;2024-02-16T13:45:09;16.70;1.00
6662;DHT22;3367;48.714;8.994;2024-02-16T13:47:37;16.60;1.00
6662;DHT22;3367;48.714;8.994;2024-02-16T13:50:06;16.50;1.00
6662;DHT22;3367;48.714;8.994;2024-02-16T13:52:32;16.50;1.00
6662;DHT22;3367;48.714;8.994;2024-02-16T13:55:00;16.50;1.00
6662;DHT22;3367;48.714;8.994;2024-02-16T13:57:27;16.40;1.00
6662;DHT22;3367;48.714;8.994;2024-02-16T13:59:54;16.40;1.00
6662;DHT22;3367;48.714;8.994;2024-02-16T14:02:20;16.40;1.00
6662;DHT22;3367;48.714;8.994;2024-02-16T14:04:49;16.30;1.00
6662;DHT22;3367;48.714;8.994;2024-02-16T14:07:16;16.30;1.00
6662;DHT22;3367;48.714;8.994;2024-02-16T14:09:43;16.20;1.00
6662;DHT22;3367;48.714;8.994;2024-02-16T14:12:10;16.10;1.00
6662;DHT22;3367;48.714;8.994;2024-02-16T14:14:37;16.20;1.00
6662;DHT22;3367;48.714;8.994;2024-02-16T14:17:04;16.10;1.00
6662;DHT22;3367;48.714;8.994;2024-02-16T14:19:31;16.00;1.00
6662;DHT22;3367;48.714;8.994;2024-02-16T14:22:00;16.10;1.00
6662;DHT22;3367;48.714;8.994;2024-02-16T14:24:27;16.00;1.00
6662;DHT22;3367;48.714;8.994;2024-02-16T14:26:54;16.00;1.00
6662;DHT22;3367;48.714;8.994;2024-02-16T14:29:21;16.10;1.00
6662;DHT22;3367;48.714;8.994;2024-02-16T14:31:48;16.00;1.00
6662;DHT22;3367;48.714;8.994;2024-02-16T14:34:15;16.00;1.00
6662;DHT22;3367;48.714;8.994;2024-02-16T14:36:42;16.00;1.00
6662;DHT22;3367;48.714;8.994;2024-02-16T14:39:10;15.90;1.00
6662;DHT22;3367;48.714;8.994;2024-02-16T14:41:37;16.00;1.00
6662;DHT22;3367;48.714;8.994;2024-02-16T14:44:04;15.90;1.00
6662;DHT22;3367;48.714;8.994;2024-02-16T14:46:30;15.90;1.00
6662;DHT22;3367;48.714;8.994;2024-02-16T14:48:57;15.90;1.00
6662;DHT22;3367;48.714;8.994;2024-02-16T14:51:24;15.90;1.00
6662;DHT22;3367;48.714;8.994;2024-02-16T14:53:50;15.90;1.00
6662;DHT22;3367;48.714;8.994;2024-02-16T14:56:19;15.90;1.00
6662;DHT22;3367;48.714;8.994;2024-02-16T14:58:47;15.90;1.00
6662;DHT22;3367;48.714;8.994;2024-02-16T15:01:14;15.90;1.00
6662;DHT22;3367;48.714;8.994;2024-02-16T15:03:41;15.90;1.00
6662;DHT22;3367;48.714;8.994;2024-02-16T15:06:07;15.80;1.00
6662;DHT22;3367;48.714;8.994;2024-02-16T15:08:34;15.80;1.00
6662;DHT22;3367;48.714;8.994;2024-02-16T15:11:01;15.70;1.00
6662;DHT22;3367;48.714;8.994;2024-02-16T15:13:29;15.70;1.00
6662;DHT22;3367;48.714;8.994;2024-02-16T15:15:56;15.60;1.00
6662;DHT22;3367;48.714;8.994;2024-02-16T15:18:23;15.60;1.00
6662;DHT22;3367;48.714;8.994;2024-02-16T15:20:49;15.50;1.00
6662;DHT22;3367;48.714;8.994;2024-02-16T15:23:16;15.50;1.00
6662;DHT22;3367;48.714;8.994;2024-02-16T15:25:43;15.40;1.00
6662;DHT22;3367;48.714;8.994;2024-02-16T15:28:09;15.40;1.00
6662;DHT22;3367;48.714;8.994;2024-02-16T15:30:40;15.30;1.00
6662;DHT22;3367;48.714;8.994;2024-02-16T15:33:06;15.30;1.00
6662;DHT22;3367;48.714;8.994;2024-02-16T15:35:33;15.20;1.00
6662;DHT22;3367;48.714;8.994;2024-02-16T15:38:00;15.20;1.00
6662;DHT22;3367;48.714;8.994;2024-02-16T15:40:27;15.10;1.00
6662;DHT22;3367;48.714;8.994;2024-02-16T15:43:00;15.00;1.00
6662;DHT22;3367;48.714;8.994;2024-02-16T15:45:27;15.00;1.00
6662;DHT22;3367;48.714;8.994;2024-02-16T15:47:56;15.00;1.00
6662;DHT22;3367;48.714;8.994;2024-02-16T15:50:23;14.90;1.00
6662;DHT22;3367;48.714;8.994;2024-02-16T15:52:51;14.90;1.00
6662;DHT22;3367;48.714;8.994;2024-02-16T15:55:18;14.80;1.00
6662;DHT22;3367;48.714;8.994;2024-02-16T15:57:45;14.80;1.00
6662;DHT22;3367;48.714;8.994;2024-02-16T16:00:12;14.80;1.00
6662;DHT22;3367;48.714;8.994;2024-02-16T16:02:39;14.80;1.00
6662;DHT22;3367;48.714;8.994;2024-02-16T16:05:08;14.70;1.00
6662;DHT22;3367;48.714;8.994;2024-02-16T16:07:35;14.60;1.00
6662;DHT22;3367;48.714;8.994;2024-02-16T16:10:01;14.60;1.00
6662;DHT22;3367;48.714;8.994;2024-02-16T16:12:28;14.60;1.00
6662;DHT22;3367;48.714;8.994;2024-02-16T16:14:55;14.60;1.00
6662;DHT22;3367;48.714;8.994;2024-02-16T16:17:21;14.50;1.00
6662;DHT22;3367;48.714;8.994;2024-02-16T16:19:48;14.40;1.00
6662;DHT22;3367;48.714;8.994;2024-02-16T16:22:16;14.40;1.00
6662;DHT22;3367;48.714;8.994;2024-02-16T16:24:43;14.40;1.00
6662;DHT22;3367;48.714;8.994;2024-02-16T16:27:10;14.30;1.00
6662;DHT22;3367;48.714;8.994;2024-02-16T16:29:37;14.30;1.00